Time;durP1;ratioP1;P1;durP2;ratioP2;P2;SDS_P1;SDS_P2;PMS_P1;PMS_P2;Temp;Humidity;BMP_temperature;BMP_pressure;BME280_temperature;BME280_humidity;BME280_pressure;Samples;Min_cycle;Max_cycle;Signal;HPM_P1;HPM_P2
2024/01/15 00:00:11;;;;;;;19.63;11.45;;;;;;;1.08;85.46;98930.34;6219858;23;20032;-73
2024/01/15 00:02:38;;;;;;;22.63;12.70;;;;;;;1.18;84.98;98920.63;6219105;23;20021;-74
2024/01/15 00:05:06;;;;;;;22.08;12.40;;;;;;;1.20;84.57;98921.34;6218861;23;20031;-74
2024/01/15 00:07:32;;;;;;;24.23;12.25;;;;;;;1.11;85.27;98914.06;6219130;23;20067;-74
2024/01/15 00:09:59;;;;;;;22.70;11.73;;;;;;;1.10;85.63;98904.34;6218517;23;20363;-73
2024/01/15 00:12:26;;;;;;;17.63;11.60;;;;;;;1.08;85.52;98908.97;6218964;23;20064;-74
2024/01/15 00:14:53;;;;;;;19.48;11.85;;;;;;;1.00;86.42;98901.56;6218658;23;20416;-74
2024/01/15 00:17:20;;;;;;;18.33;11.25;;;;;;;1.07;85.83;98901.94;6218185;23;20024;-74
2024/01/15 00:19:46;;;;;;;21.77;12.35;;;;;;;0.99;86.27;98888.34;6216662;23;20028;-71
2024/01/15 00:22:13;;;;;;;21.33;11.73;;;;;;;1.00;85.68;98890.88;6215947;23;20024;-73
2024/01/15 00:24:40;;;;;;;20.40;12.60;;;;;;;0.99;85.49;98889.19;6218176;23;20031;-73
2024/01/15 00:27:06;;;;;;;20.35;12.00;;;;;;;1.02;85.22;98882.75;6220792;23;20503;-74
2024/01/15 00:29:33;;;;;;;20.30;12.10;;;;;;;1.00;85.07;98880.19;6219382;23;20040;-74
2024/01/15 00:31:59;;;;;;;22.60;11.88;;;;;;;0.96;85.55;98873.41;6219553;23;20028;-73
2024/01/15 00:34:26;;;;;;;21.08;11.80;;;;;;;1.00;85.02;98874.00;6191768;23;20025;-73
2024/01/15 00:36:53;;;;;;;19.02;11.88;;;;;;;0.95;84.99;98854.81;6220838;23;20025;-73
2024/01/15 00:39:20;;;;;;;18.85;11.27;;;;;;;1.04;84.79;98854.09;6219138;23;20110;-73
2024/01/15 00:41:47;;;;;;;23.23;11.98;;;;;;;1.07;84.51;98853.88;6218445;23;20016;-73
2024/01/15 00:44:13;;;;;;;18.58;12.10;;;;;;;1.12;83.76;98851.69;6217346;23;20478;-73
2024/01/15 00:46:49;;;;;;;21.45;11.88;;;;;;;0.89;84.55;98850.84;6218557;23;20052;-73
2024/01/15 00:49:16;;;;;;;20.70;11.43;;;;;;;1.04;84.35;98842.56;6217605;23;20024;-72
2024/01/15 00:51:42;;;;;;;19.38;11.05;;;;;;;0.99;83.84;98843.81;6216049;23;20024;-72
2024/01/15 00:54:09;;;;;;;22.08;13.43;;;;;;;1.08;83.28;98828.03;6216137;23;20037;-74
2024/01/15 00:56:36;;;;;;;21.50;11.75;;;;;;;1.06;83.13;98841.50;6215791;23;20029;-73
2024/01/15 00:59:03;;;;;;;19.58;10.27;;;;;;;1.08;82.97;98825.34;6216008;23;20028;-73
2024/01/15 01:01:30;;;;;;;16.67;10.18;;;;;;;1.09;82.43;98833.25;6214863;23;20092;-73
2024/01/15 01:03:56;;;;;;;18.23;10.50;;;;;;;1.08;82.88;98833.38;6216607;23;20029;-74
2024/01/15 01:06:23;;;;;;;20.05;11.32;;;;;;;1.06;83.27;98830.81;6216562;23;20087;-72
2024/01/15 01:08:50;;;;;;;19.65;11.15;;;;;;;0.98;83.71;98811.91;6217895;23;20025;-72
2024/01/15 01:11:16;;;;;;;20.85;11.35;;;;;;;1.05;83.53;98822.91;6218142;23;20402;-72
2024/01/15 01:13:43;;;;;;;20.13;11.40;;;;;;;1.09;83.08;98819.91;6219323;23;20051;-72
2024/01/15 01:16:10;;;;;;;18.92;11.25;;;;;;;1.10;83.34;98824.25;6218679;23;20051;-73
2024/01/15 01:18:36;;;;;;;20.10;11.52;;;;;;;1.08;83.66;98818.19;6218717;23;20028;-73
2024/01/15 01:21:03;;;;;;;21.50;11.55;;;;;;;1.02;84.91;98824.00;6218998;23;20095;-73
2024/01/15 01:23:30;;;;;;;20.33;11.75;;;;;;;1.02;84.33;98817.81;6219018;23;20355;-73
2024/01/15 01:25:57;;;;;;;18.92;11.38;;;;;;;1.04;84.35;98837.22;6219275;23;20028;-72
2024/01/15 01:28:24;;;;;;;21.08;11.63;;;;;;;0.99;84.90;98829.59;6219485;23;20051;-73
2024/01/15 01:30:51;;;;;;;20.88;11.25;;;;;;;0.99;85.11;98829.59;6222021;23;20079;-72
2024/01/15 01:33:17;;;;;;;20.33;12.40;;;;;;;1.02;85.31;98829.34;6224427;23;20056;-72
2024/01/15 01:35:45;;;;;;;23.38;12.27;;;;;;;1.03;85.26;98828.38;6223136;23;20024;-73
2024/01/15 01:38:12;;;;;;;20.88;11.32;;;;;;;0.96;85.83;98827.19;6226263;23;20084;-73
2024/01/15 01:40:39;;;;;;;23.58;12.00;;;;;;;0.99;85.98;98821.59;6228262;23;20060;-73
2024/01/15 01:43:06;;;;;;;21.98;12.77;;;;;;;0.81;86.57;98820.38;6202574;23;20132;-72
2024/01/15 01:45:33;;;;;;;25.55;12.85;;;;;;;0.73;87.74;98828.97;6228735;23;20063;-73
2024/01/15 01:48:01;;;;;;;25.60;13.13;;;;;;;0.67;88.25;98821.44;6230758;23;20028;-73
2024/01/15 01:50:31;;;;;;;24.73;13.98;;;;;;;0.73;87.91;98822.81;6229712;23;20036;-72
2024/01/15 01:53:00;;;;;;;26.40;14.13;;;;;;;0.72;88.18;98824.63;6207326;23;20029;-72
2024/01/15 01:55:29;;;;;;;22.55;13.45;;;;;;;0.70;87.91;98822.06;6203371;23;20252;-72
2024/01/15 01:57:56;;;;;;;26.52;14.55;;;;;;;0.67;87.44;98816.97;6202039;23;20029;-72
2024/01/15 02:00:24;;;;;;;24.58;13.55;;;;;;;0.81;86.77;98815.03;6200841;23;20024;-72
2024/01/15 02:02:51;;;;;;;27.92;13.50;;;;;;;0.77;87.07;98816.25;6202710;23;20040;-72
2024/01/15 02:09:05;;;;;;;24.80;12.13;;;;;;;0.62;86.89;98803.16;6200321;23;20029;-72
2024/01/15 02:11:31;;;;;;;20.42;12.68;;;;;;;0.55;87.53;98804.59;6200219;23;20562;-72
2024/01/15 02:13:58;;;;;;;27.05;14.00;;;;;;;0.44;88.41;98804.56;6198065;23;20368;-72
2024/01/15 02:16:25;;;;;;;25.30;13.60;;;;;;;0.57;87.22;98801.78;6197634;23;20089;-73
2024/01/15 02:18:51;;;;;;;23.05;11.77;;;;;;;0.51;86.73;98797.81;6193346;23;20021;-73
2024/01/15 02:21:18;;;;;;;22.48;12.40;;;;;;;0.58;86.40;98791.03;6191696;23;20025;-73
2024/01/15 02:23:44;;;;;;;22.63;12.07;;;;;;;0.45;87.01;98797.44;6191119;23;20108;-72
2024/01/15 02:26:12;;;;;;;21.73;11.80;;;;;;;0.44;87.17;98801.91;6190737;23;20021;-73
2024/01/15 02:28:38;;;;;;;27.48;12.32;;;;;;;0.50;86.85;98788.09;6191811;23;20025;-73
2024/01/15 02:31:05;;;;;;;21.38;11.32;;;;;;;0.51;85.46;98796.97;6191260;23;20024;-73
2024/01/15 02:33:31;;;;;;;19.00;10.40;;;;;;;0.51;85.32;98789.81;6192460;23;20076;-73
2024/01/15 02:35:58;;;;;;;20.25;9.75;;;;;;;0.38;85.47;98784.56;6193354;23;20401;-73
2024/01/15 02:38:25;;;;;;;18.42;9.95;;;;;;;0.45;85.13;98792.09;6192100;23;20028;-72
2024/01/15 02:40:51;;;;;;;18.13;9.98;;;;;;;0.55;84.27;98798.41;6193976;23;20021;-73
2024/01/15 02:43:19;;;;;;;19.35;9.68;;;;;;;0.47;84.57;98791.00;6192546;23;20018;-73
2024/01/15 02:45:46;;;;;;;18.92;10.10;;;;;;;0.46;84.75;98791.97;6193140;23;20088;-72
2024/01/15 02:48:13;;;;;;;20.38;9.45;;;;;;;0.46;84.75;98789.28;6193141;23;20013;-73
2024/01/15 02:50:40;;;;;;;20.73;10.63;;;;;;;0.44;84.99;98791.25;6191345;23;20021;-72
2024/01/15 02:53:06;;;;;;;17.70;10.07;;;;;;;0.39;85.37;98794.25;6219071;23;20059;-72
2024/01/15 02:55:33;;;;;;;18.70;9.95;;;;;;;0.53;84.78;98787.84;6222418;23;20334;-73
2024/01/15 02:58:00;;;;;;;22.70;10.57;;;;;;;0.49;85.12;98775.75;6211258;23;20082;-72
2024/01/15 03:00:26;;;;;;;16.55;10.25;;;;;;;0.52;83.90;98782.66;6223534;23;20020;-72
2024/01/15 03:02:54;;;;;;;18.08;9.73;;;;;;;0.52;84.51;98778.16;6222919;23;20025;-71
2024/01/15 03:05:21;;;;;;;21.13;10.55;;;;;;;0.50;84.50;98769.44;6222506;23;20040;-71
2024/01/15 03:07:48;;;;;;;22.30;11.02;;;;;;;0.55;84.47;98775.25;6220892;23;20020;-71
2024/01/15 03:10:14;;;;;;;18.77;9.77;;;;;;;0.54;84.05;98781.56;6223175;23;20096;-72
2024/01/15 03:12:41;;;;;;;21.45;10.20;;;;;;;0.59;83.60;98776.72;6222649;23;20016;-72
2024/01/15 03:15:07;;;;;;;18.05;9.38;;;;;;;0.52;84.25;98775.50;6221499;23;20150;-73
2024/01/15 03:17:34;;;;;;;22.52;10.25;;;;;;;0.56;83.24;98771.59;6219789;23;20024;-72
2024/01/15 03:20:01;;;;;;;22.25;9.05;;;;;;;0.37;84.04;98769.53;6219048;23;20025;-72
2024/01/15 03:22:28;;;;;;;18.40;9.20;;;;;;;0.61;83.36;98772.09;6219821;23;20081;-71
2024/01/15 03:24:54;;;;;;;20.20;8.20;;;;;;;0.69;82.79;98766.16;6218851;23;20290;-73
2024/01/15 03:27:21;;;;;;;18.92;9.25;;;;;;;0.70;82.80;98768.72;6218409;23;20028;-72
2024/01/15 03:29:48;;;;;;;19.00;9.05;;;;;;;0.59;83.60;98767.88;6218799;23;20202;-71
2024/01/15 03:32:16;;;;;;;16.48;7.78;;;;;;;0.72;81.98;98757.91;6218998;23;20020;-73
2024/01/15 03:34:42;;;;;;;16.20;7.47;;;;;;;0.71;81.61;98767.75;6217429;23;20477;-72
2024/01/15 03:37:09;;;;;;;17.85;8.55;;;;;;;0.66;81.83;98755.72;6217226;23;20024;-72
2024/01/15 03:39:36;;;;;;;17.00;8.63;;;;;;;0.62;82.42;98770.28;6217706;23;20043;-72
2024/01/15 03:42:03;;;;;;;17.38;8.35;;;;;;;0.65;81.87;98764.69;6213450;23;20540;-72
2024/01/15 03:44:29;;;;;;;18.75;8.50;;;;;;;0.65;82.22;98756.69;6213529;23;20021;-72
2024/01/15 03:46:56;;;;;;;18.98;8.27;;;;;;;0.70;81.69;98752.72;6214858;23;20020;-72
2024/01/15 03:49:22;;;;;;;17.90;8.05;;;;;;;0.80;80.50;98735.97;6214367;23;20017;-72
2024/01/15 03:51:49;;;;;;;16.88;7.78;;;;;;;0.72;81.08;98736.56;6212239;23;20044;-72
2024/01/15 03:54:16;;;;;;;17.15;7.60;;;;;;;0.78;80.14;98736.09;6214514;23;20091;-71
2024/01/15 03:56:46;;;;;;;15.00;7.15;;;;;;;0.77;80.37;98728.19;6215541;23;20101;-72
2024/01/15 03:59:12;;;;;;;33.20;8.23;;;;;;;0.66;81.04;98721.88;6215192;23;20328;-72
2024/01/15 04:01:39;;;;;;;21.75;7.70;;;;;;;0.57;80.28;98733.28;6214598;23;20020;-71
2024/01/15 04:04:05;;;;;;;24.23;7.25;;;;;;;0.69;80.46;98727.00;6214664;23;20020;-73
2024/01/15 04:06:32;;;;;;;20.98;6.75;;;;;;;0.76;80.59;98729.16;6187563;23;20028;-72
2024/01/15 04:08:59;;;;;;;19.17;6.93;;;;;;;0.86;79.51;98724.78;6214840;23;20111;-74
2024/01/15 04:11:25;;;;;;;18.73;6.45;;;;;;;0.74;79.95;98723.09;6216424;23;20024;-74
2024/01/15 04:13:52;;;;;;;19.67;8.15;;;;;;;0.78;80.03;98729.91;6214123;23;20024;-73
2024/01/15 04:16:19;;;;;;;21.65;6.60;;;;;;;0.79;79.15;98715.59;6217688;23;20052;-73
2024/01/15 04:18:45;;;;;;;13.88;6.53;;;;;;;0.69;80.57;98716.31;6192231;23;20455;-73
2024/01/15 04:21:12;;;;;;;17.52;6.68;;;;;;;0.70;80.17;98718.03;6216520;23;20028;-73
2024/01/15 04:23:39;;;;;;;14.43;6.15;;;;;;;0.65;80.46;98714.00;6216707;23;20027;-74
2024/01/15 04:26:05;;;;;;;15.60;6.03;;;;;;;0.76;79.86;98710.47;6215886;23;20451;-74
2024/01/15 04:28:32;;;;;;;15.30;5.47;;;;;;;0.79;79.64;98710.25;6214016;23;20030;-73
2024/01/15 04:30:58;;;;;;;14.02;5.68;;;;;;;0.71;79.75;98718.88;6215880;23;20020;-73
2024/01/15 04:33:25;;;;;;;24.25;5.80;;;;;;;0.76;79.96;98727.34;6214759;23;20024;-74
2024/01/15 04:35:52;;;;;;;16.17;5.78;;;;;;;0.79;79.95;98726.25;6212446;23;20047;-74
2024/01/15 04:38:18;;;;;;;15.43;5.10;;;;;;;0.73;80.09;98724.06;6213641;23;20024;-73
2024/01/15 04:40:45;;;;;;;14.05;4.70;;;;;;;0.82;78.17;98720.66;6213347;23;20418;-72
2024/01/15 04:43:12;;;;;;;15.75;4.85;;;;;;;0.81;78.81;98718.97;6211425;23;20081;-73
2024/01/15 04:45:38;;;;;;;17.70;6.93;;;;;;;0.76;79.21;98705.16;6211024;23;20032;-72
2024/01/15 04:48:05;;;;;;;14.85;5.25;;;;;;;0.77;78.47;98701.50;6211581;23;20031;-72
2024/01/15 04:50:32;;;;;;;15.10;4.35;;;;;;;0.82;78.62;98678.81;6210403;23;20163;-74
2024/01/15 04:52:58;;;;;;;18.17;4.75;;;;;;;0.69;78.98;98684.31;6211432;23;20098;-72
2024/01/15 04:55:25;;;;;;;17.23;3.83;;;;;;;0.69;78.25;98673.63;6211291;23;20098;-72
2024/01/15 04:57:51;;;;;;;9.68;4.15;;;;;;;0.71;78.65;98681.50;6211078;23;20031;-73
2024/01/15 05:00:19;;;;;;;18.70;4.53;;;;;;;0.71;78.48;98689.53;6211802;23;20082;-72
2024/01/15 05:02:46;;;;;;;16.33;3.92;;;;;;;0.62;79.06;98688.44;6212661;23;20439;-73
2024/01/15 05:05:12;;;;;;;11.30;3.90;;;;;;;0.83;77.76;98669.00;6212784;23;20067;-73
2024/01/15 05:07:40;;;;;;;14.90;3.58;;;;;;;0.80;78.23;98683.44;6212185;23;20094;-74
2024/01/15 05:10:07;;;;;;;12.95;3.50;;;;;;;0.75;79.40;98682.09;6214362;23;20035;-74
2024/01/15 05:12:34;;;;;;;13.07;4.13;;;;;;;0.70;80.89;98696.69;6211041;23;20025;-75
2024/01/15 05:15:02;;;;;;;16.20;4.00;;;;;;;0.66;81.93;98689.88;6210464;23;20032;-74
2024/01/15 05:17:29;;;;;;;15.68;3.80;;;;;;;0.73;81.50;98694.72;6210351;23;20024;-73
2024/01/15 05:19:57;;;;;;;12.80;3.58;;;;;;;0.82;80.82;98684.16;6211842;23;20073;-73
2024/01/15 05:22:25;;;;;;;17.30;3.38;;;;;;;0.88;79.50;98688.16;6211024;23;20044;-75
2024/01/15 05:24:51;;;;;;;9.63;3.28;;;;;;;0.84;80.12;98692.88;6210820;23;20479;-73
2024/01/15 05:27:18;;;;;;;17.17;4.32;;;;;;;0.84;79.98;98697.38;6212186;23;20021;-73
2024/01/15 05:29:45;;;;;;;12.68;3.90;;;;;;;0.75;80.76;98693.63;6213555;23;20025;-73
2024/01/15 05:32:11;;;;;;;25.10;3.97;;;;;;;0.90;79.37;98680.88;6211964;23;20032;-73
2024/01/15 05:34:38;;;;;;;14.57;3.60;;;;;;;0.93;78.23;98680.63;6211623;23;20092;-73
2024/01/15 05:37:05;;;;;;;14.75;3.70;;;;;;;0.91;78.23;98679.91;6210284;23;20347;-72
2024/01/15 05:39:32;;;;;;;22.67;3.72;;;;;;;0.83;79.25;98671.66;6209551;23;20123;-72
2024/01/15 05:42:00;;;;;;;17.35;3.40;;;;;;;0.95;78.44;98667.97;6209417;23;20092;-74
2024/01/15 05:44:26;;;;;;;13.82;3.28;;;;;;;0.95;78.17;98674.19;6212844;23;20020;-74
2024/01/15 05:46:53;;;;;;;24.27;3.83;;;;;;;1.00;78.37;98663.13;6214249;23;20379;-73
2024/01/15 05:49:19;;;;;;;13.05;2.90;;;;;;;0.96;78.81;98672.38;6215519;23;20024;-71
2024/01/15 05:51:46;;;;;;;13.48;2.97;;;;;;;0.84;79.64;98662.69;6213645;23;20339;-73
2024/01/15 05:54:14;;;;;;;14.75;4.07;;;;;;;0.86;79.55;98668.72;6214441;23;20443;-72
2024/01/15 05:56:40;;;;;;;11.43;2.75;;;;;;;0.95;78.94;98665.31;6214646;23;20020;-72
2024/01/15 05:59:07;;;;;;;18.15;3.10;;;;;;;0.97;79.38;98674.91;6215429;23;20107;-72
2024/01/15 06:01:33;;;;;;;10.05;3.10;;;;;;;0.95;79.95;98678.66;6214956;23;20436;-72
2024/01/15 06:04:00;;;;;;;14.00;2.85;;;;;;;0.92;80.06;98678.91;6216160;23;20024;-72
2024/01/15 06:06:27;;;;;;;22.08;3.72;;;;;;;0.81;80.47;98670.94;6217235;23;20039;-72
2024/01/15 06:08:53;;;;;;;9.60;2.97;;;;;;;0.98;80.39;98683.78;6216120;23;20028;-72
2024/01/15 06:11:20;;;;;;;16.10;2.80;;;;;;;0.81;81.26;98679.78;6216434;23;20024;-71
2024/01/15 06:13:46;;;;;;;16.90;2.95;;;;;;;0.95;80.52;98671.53;6217036;23;20024;-71
2024/01/15 06:16:15;;;;;;;11.80;3.60;;;;;;;0.87;80.70;98673.97;6217422;23;20027;-72
2024/01/15 06:18:42;;;;;;;20.98;3.13;;;;;;;0.84;81.07;98660.00;6215147;23;20020;-72
2024/01/15 06:21:10;;;;;;;14.45;2.90;;;;;;;0.91;80.32;98671.88;6188333;23;20020;-71
2024/01/15 06:23:37;;;;;;;14.48;3.40;;;;;;;0.88;79.98;98656.97;6216982;23;20028;-73
2024/01/15 06:26:05;;;;;;;15.32;3.00;;;;;;;0.80;80.96;98666.59;6218261;23;20128;-73
2024/01/15 06:28:31;;;;;;;17.77;3.20;;;;;;;0.86;80.65;98666.94;6225307;23;20072;-71
2024/01/15 06:30:58;;;;;;;17.35;2.75;;;;;;;0.93;81.08;98660.09;6225618;23;20071;-70
2024/01/15 06:33:25;;;;;;;15.85;3.22;;;;;;;0.82;82.59;98661.97;6224781;23;20096;-72
2024/01/15 06:35:52;;;;;;;9.20;2.75;;;;;;;0.82;82.43;98667.28;6223821;23;20032;-72
2024/01/15 06:38:18;;;;;;;11.68;2.47;;;;;;;0.89;82.05;98668.50;6225287;23;20028;-72
2024/01/15 06:40:45;;;;;;;11.10;2.40;;;;;;;0.83;82.33;98671.66;6223673;23;20024;-73
2024/01/15 06:43:13;;;;;;;14.73;3.13;;;;;;;0.98;81.47;98670.41;6222480;23;20021;-72
2024/01/15 06:45:39;;;;;;;15.95;2.88;;;;;;;0.90;81.51;98659.53;6225713;23;20025;-73
2024/01/15 06:48:12;;;;;;;19.98;2.83;;;;;;;0.93;80.88;98665.44;6225791;23;20063;-72
2024/01/15 06:50:39;;;;;;;13.98;3.88;;;;;;;0.97;80.82;98666.91;6225864;23;20031;-71
2024/01/15 06:53:06;;;;;;;23.23;3.15;;;;;;;0.99;80.58;98667.63;6224344;23;20056;-72
2024/01/15 06:55:32;;;;;;;11.15;2.40;;;;;;;0.96;80.77;98681.22;6225460;23;20025;-71
2024/01/15 06:57:59;;;;;;;21.48;6.63;;;;;;;0.97;80.12;98671.41;6224520;23;20467;-71
2024/01/15 07:00:27;;;;;;;13.75;2.60;;;;;;;0.95;80.35;98684.88;6225033;23;20024;-71
2024/01/15 07:02:55;;;;;;;12.45;2.72;;;;;;;1.01;80.17;98678.16;6224098;23;20024;-71
2024/01/15 07:05:23;;;;;;;13.05;2.25;;;;;;;0.96;79.92;98675.03;6221145;23;20059;-72
2024/01/15 07:07:50;;;;;;;9.43;2.10;;;;;;;1.08;78.31;98678.53;6220733;23;20032;-71
2024/01/15 07:10:16;;;;;;;10.75;2.08;;;;;;;0.97;78.92;98687.41;6221016;23;20525;-71
2024/01/15 07:12:43;;;;;;;15.02;2.15;;;;;;;1.06;78.40;98691.16;6221364;23;20329;-71
2024/01/15 07:15:10;;;;;;;13.38;2.15;;;;;;;1.03;78.39;98696.72;6221003;23;20047;-71
2024/01/15 07:17:40;;;;;;;13.32;2.53;;;;;;;1.05;77.52;98694.78;6222803;23;20332;-70
2024/01/15 07:20:08;;;;;;;12.98;2.30;;;;;;;1.03;77.85;98697.56;6220905;23;20029;-70
2024/01/15 07:22:37;;;;;;;17.65;3.10;;;;;;;1.15;78.08;98691.25;6221453;23;20072;-70
2024/01/15 07:25:05;;;;;;;16.73;2.65;;;;;;;1.09;77.44;98691.75;6222204;23;20025;-71
2024/01/15 07:27:32;;;;;;;15.68;2.53;;;;;;;1.19;77.12;98706.03;6223998;23;20024;-70
2024/01/15 07:29:59;;;;;;;14.40;2.38;;;;;;;1.13;77.74;98722.53;6220160;23;20024;-70
2024/01/15 07:32:28;;;;;;;14.13;2.58;;;;;;;1.11;77.53;98719.16;6219444;23;20025;-70
2024/01/15 07:34:55;;;;;;;12.63;2.30;;;;;;;1.16;77.40;98711.63;6220086;23;20029;-70
2024/01/15 07:37:23;;;;;;;13.15;2.28;;;;;;;1.19;77.31;98722.06;6222109;23;20055;-70
2024/01/15 07:39:49;;;;;;;14.93;3.50;;;;;;;1.21;76.58;98717.44;6219473;23;20048;-70
2024/01/15 07:42:16;;;;;;;21.77;2.13;;;;;;;1.19;77.13;98735.41;6221484;23;20518;-70
2024/01/15 07:44:43;;;;;;;18.85;2.17;;;;;;;1.18;77.06;98720.34;6218382;23;20031;-70
2024/01/15 07:47:09;;;;;;;15.82;2.95;;;;;;;1.26;76.69;98715.25;6217767;23;20024;-71
2024/01/15 07:49:36;;;;;;;23.70;2.30;;;;;;;1.25;76.63;98726.06;6215969;23;20025;-71
2024/01/15 07:52:05;;;;;;;16.33;2.58;;;;;;;1.22;76.25;98723.63;6215114;23;20087;-71
2024/01/15 07:54:32;;;;;;;18.35;2.20;;;;;;;1.32;76.22;98742.41;6216457;23;20028;-71
2024/01/15 07:57:00;;;;;;;13.13;2.10;;;;;;;1.41;76.00;98737.16;6217072;23;20124;-70
2024/01/15 07:59:27;;;;;;;10.20;2.05;;;;;;;1.41;76.23;98750.50;6216490;23;20104;-71
2024/01/15 08:01:54;;;;;;;17.35;2.25;;;;;;;1.33;76.14;98731.63;6215148;23;20404;-71
2024/01/15 08:04:21;;;;;;;18.85;2.90;;;;;;;1.42;76.41;98743.34;6215445;23;20411;-72
2024/01/15 08:06:48;;;;;;;19.35;2.58;;;;;;;1.44;75.97;98744.94;6214597;23;20444;-72
2024/01/15 08:09:16;;;;;;;13.48;2.80;;;;;;;1.50;75.75;98743.56;6216746;23;20024;-71
2024/01/15 08:11:43;;;;;;;11.63;3.25;;;;;;;1.42;76.08;98735.31;6214008;23;20021;-71
2024/01/15 08:14:10;;;;;;;19.75;2.90;;;;;;;1.49;75.61;98747.22;6187598;23;20505;-72
2024/01/15 08:16:37;;;;;;;14.32;2.40;;;;;;;1.54;75.79;98737.00;6216026;23;20032;-72
2024/01/15 08:19:05;;;;;;;15.85;2.47;;;;;;;1.42;76.14;98740.66;6215553;23;20110;-72
2024/01/15 08:21:32;;;;;;;15.10;2.55;;;;;;;1.38;76.01;98749.91;6215986;23;20028;-72
2024/01/15 08:24:00;;;;;;;14.40;2.47;;;;;;;1.50;75.95;98743.56;6215544;23;20083;-72
2024/01/15 08:26:26;;;;;;;8.35;1.80;;;;;;;1.40;75.98;98737.28;6215859;23;20076;-73
2024/01/15 08:28:53;;;;;;;17.10;2.40;;;;;;;1.45;76.18;98740.44;6215240;23;20033;-72
2024/01/15 08:31:19;;;;;;;19.67;2.85;;;;;;;1.48;75.81;98740.16;6215574;23;20020;-72
2024/01/15 08:33:46;;;;;;;15.80;3.13;;;;;;;1.50;75.97;98728.38;6216946;23;20051;-71
2024/01/15 08:36:13;;;;;;;13.38;2.08;;;;;;;1.51;75.48;98718.53;6215152;23;20096;-71
2024/01/15 08:38:40;;;;;;;12.18;2.15;;;;;;;1.54;75.10;98732.50;6214829;23;20028;-72
2024/01/15 08:41:08;;;;;;;10.23;1.92;;;;;;;1.71;74.85;98736.44;6214313;23;20029;-72
2024/01/15 08:43:35;;;;;;;18.23;2.28;;;;;;;1.73;74.82;98745.19;6215559;23;20387;-72
2024/01/15 08:46:02;;;;;;;10.25;1.83;;;;;;;1.71;73.93;98749.81;6216047;23;20024;-72
2024/01/15 08:48:29;;;;;;;12.60;2.13;;;;;;;1.69;73.96;98746.41;6215434;23;20436;-73
2024/01/15 08:50:56;;;;;;;11.52;2.38;;;;;;;1.75;73.84;98753.91;6214137;23;20080;-73
2024/01/15 08:53:23;;;;;;;10.45;2.33;;;;;;;1.77;73.95;98751.94;6215480;23;20410;-72
2024/01/15 08:55:50;;;;;;;11.00;1.50;;;;;;;1.63;74.39;98754.94;6214511;23;20039;-72
2024/01/15 08:58:17;;;;;;;9.68;1.92;;;;;;;1.61;74.42;98746.22;6216965;23;20044;-73
2024/01/15 09:00:44;;;;;;;8.13;1.70;;;;;;;1.54;74.89;98763.72;6215568;23;20025;-72
2024/01/15 09:03:11;;;;;;;9.13;2.08;;;;;;;1.57;74.70;98766.97;6213771;23;20347;-72
2024/01/15 09:05:37;;;;;;;13.07;2.67;;;;;;;1.58;75.30;98767.81;6215290;23;20033;-72
2024/01/15 09:08:05;;;;;;;15.25;2.33;;;;;;;1.51;75.04;98762.16;6214494;23;20170;-72
2024/01/15 09:10:32;;;;;;;18.60;2.33;;;;;;;1.63;75.23;98760.28;6213571;23;20028;-72
2024/01/15 09:13:00;;;;;;;11.32;2.15;;;;;;;1.59;75.77;98772.19;6215013;23;20024;-71
2024/01/15 09:15:27;;;;;;;11.32;1.95;;;;;;;1.54;75.87;98767.25;6213802;23;20067;-72
2024/01/15 09:17:54;;;;;;;7.18;1.60;;;;;;;1.68;75.79;98767.91;6213603;23;20080;-72
2024/01/15 09:20:21;;;;;;;13.10;2.42;;;;;;;1.71;76.10;98773.88;6214981;23;20020;-73
2024/01/15 09:22:47;;;;;;;22.05;2.90;;;;;;;1.69;75.42;98770.44;6213484;23;20027;-71
2024/01/15 09:25:14;;;;;;;11.05;2.15;;;;;;;1.62;75.55;98792.50;6215620;23;20443;-73
2024/01/15 09:27:40;;;;;;;20.90;3.45;;;;;;;1.64;75.70;98787.84;6214700;23;20036;-73
2024/01/15 09:30:08;;;;;;;14.77;1.95;;;;;;;1.60;76.39;98792.59;6214745;23;20140;-73
2024/01/15 09:32:35;;;;;;;11.00;2.38;;;;;;;1.71;75.50;98786.38;6213895;23;20021;-73
2024/01/15 09:35:02;;;;;;;18.40;2.42;;;;;;;1.66;75.32;98778.72;6213486;23;20063;-73
2024/01/15 09:37:29;;;;;;;13.98;2.45;;;;;;;1.71;75.94;98787.22;6213541;23;20079;-73
2024/01/15 09:40:14;;;;;;;14.43;2.40;;;;;;;1.77;75.85;98792.03;6212722;23;20016;-74
2024/01/15 09:42:42;;;;;;;14.00;2.22;;;;;;;1.74;75.70;98797.66;6212222;23;20020;-73
2024/01/15 09:45:10;;;;;;;10.45;2.38;;;;;;;1.72;75.71;98790.75;6213419;23;20028;-73
2024/01/15 09:47:37;;;;;;;14.82;2.03;;;;;;;1.69;75.78;98796.31;6210743;23;20017;-73
2024/01/15 09:50:09;;;;;;;10.73;2.25;;;;;;;1.84;75.37;98792.41;6211293;23;20031;-73
2024/01/15 09:52:36;;;;;;;12.98;2.72;;;;;;;1.80;75.74;98788.28;6213409;23;20443;-74
2024/01/15 09:55:05;;;;;;;11.68;1.70;;;;;;;1.78;75.76;98780.38;6210701;23;20363;-73
2024/01/15 09:57:32;;;;;;;15.18;3.75;;;;;;;1.95;74.88;98775.44;6212026;23;20020;-74
2024/01/15 10:00:04;;;;;;;12.73;2.25;;;;;;;1.89;74.62;98770.63;6213180;23;20108;-73
2024/01/15 10:02:31;;;;;;;12.05;2.10;;;;;;;2.00;74.27;98770.56;6210452;23;20033;-74
2024/01/15 10:04:57;;;;;;;11.85;2.50;;;;;;;1.99;74.48;98768.88;6211631;23;20025;-73
2024/01/15 10:07:25;;;;;;;7.95;1.60;;;;;;;1.96;73.87;98777.16;6212371;23;20043;-73
2024/01/15 10:09:53;;;;;;;8.05;1.75;;;;;;;2.04;74.07;98774.69;6213329;23;20032;-73
2024/01/15 10:12:22;;;;;;;11.93;1.48;;;;;;;2.05;74.09;98771.03;6210137;23;20087;-73
2024/01/15 10:14:50;;;;;;;7.05;1.85;;;;;;;2.05;73.86;98763.00;6212866;23;20143;-72
2024/01/15 10:17:17;;;;;;;10.30;1.83;;;;;;;1.80;75.43;98765.09;6211845;23;20062;-72
2024/01/15 10:19:48;;;;;;;10.88;2.35;;;;;;;1.93;74.84;98764.88;6211544;23;20031;-73
2024/01/15 10:22:17;;;;;;;8.38;2.22;;;;;;;1.90;75.14;98767.84;6211530;23;20096;-73
2024/01/15 10:24:46;;;;;;;11.82;2.00;;;;;;;1.99;74.86;98760.88;6210527;23;20095;-73
2024/01/15 10:27:14;;;;;;;9.93;2.05;;;;;;;1.98;74.67;98749.31;6212235;23;20027;-73
2024/01/15 10:29:41;;;;;;;7.68;1.65;;;;;;;2.03;74.10;98760.47;6210129;23;20024;-73
2024/01/15 10:32:11;;;;;;;11.10;2.22;;;;;;;2.06;73.64;98757.50;6212448;23;20478;-73
2024/01/15 10:34:39;;;;;;;6.88;1.55;;;;;;;2.09;73.61;98765.31;6211276;23;20024;-73
2024/01/15 10:37:09;;;;;;;4.30;1.27;;;;;;;2.14;73.91;98767.56;6212786;23;20511;-73
2024/01/15 10:39:36;;;;;;;8.93;2.20;;;;;;;2.16;73.64;98765.59;6212387;23;20340;-72
2024/01/15 10:42:04;;;;;;;8.88;1.73;;;;;;;2.14;73.85;98764.91;6213460;23;20344;-73
2024/01/15 10:44:31;;;;;;;6.45;1.88;;;;;;;2.02;73.50;98755.25;6212130;23;20025;-73
2024/01/15 10:46:58;;;;;;;7.80;1.63;;;;;;;1.91;74.18;98752.63;6213420;23;20024;-73
2024/01/15 10:49:29;;;;;;;5.38;1.23;;;;;;;1.98;73.77;98748.44;6212501;23;20072;-72
2024/01/15 10:52:01;;;;;;;4.47;1.52;;;;;;;2.06;73.04;98732.59;6213513;23;20467;-73
2024/01/15 10:54:30;;;;;;;8.00;1.60;;;;;;;2.15;73.09;98742.50;6212414;23;20464;-73
2024/01/15 10:56:57;;;;;;;11.90;2.35;;;;;;;2.37;72.39;98738.88;6212939;23;20409;-73
2024/01/15 10:59:24;;;;;;;7.20;1.45;;;;;;;2.34;72.05;98750.66;6209442;23;20031;-72
2024/01/15 11:01:55;;;;;;;6.95;1.55;;;;;;;2.36;71.71;98742.53;6210641;23;20468;-73
2024/01/15 11:04:26;;;;;;;7.95;2.28;;;;;;;2.38;72.03;98741.41;6211830;23;20025;-73
2024/01/15 11:06:55;;;;;;;8.17;1.27;;;;;;;2.45;72.64;98752.44;6209814;23;20099;-73
2024/01/15 11:09:24;;;;;;;6.20;1.23;;;;;;;2.66;70.33;98739.00;6186486;23;20784;-73
2024/01/15 11:12:05;;;;;;;10.65;1.67;;;;;;;2.78;70.25;98742.44;6212364;23;20020;-73
2024/01/15 11:14:45;;;;;;;8.68;1.77;;;;;;;2.83;70.23;98751.78;6211875;23;20048;-73
2024/01/15 11:17:13;;;;;;;3.40;1.02;;;;;;;2.79;70.84;98761.03;6212295;23;20016;-73
2024/01/15 11:19:43;;;;;;;8.55;1.30;;;;;;;2.77;70.83;98763.00;6211131;23;20021;-74
2024/01/15 11:22:33;;;;;;;2.78;1.23;;;;;;;2.58;71.10;98754.88;6211091;23;20028;-73
2024/01/15 11:25:13;;;;;;;5.28;1.40;;;;;;;2.43;72.37;98757.88;6210851;23;20050;-73
2024/01/15 11:27:52;;;;;;;3.70;1.13;;;;;;;2.32;73.12;98757.97;6211376;23;20051;-73
2024/01/15 11:30:25;;;;;;;5.32;1.00;;;;;;;2.21;73.97;98760.72;6212934;23;20040;-73
2024/01/15 11:32:52;;;;;;;;;;;;;;;2.25;74.46;98761.31;6213235;23;20072;-73
2024/01/15 11:35:19;;;;;;;4.05;1.50;;;;;;;2.21;74.48;98755.38;6212412;23;19983;-72